sensor_id;sensor_type;location;lat;lon;timestamp;P1;durP1;ratioP1;P2;durP2;ratioP2
8413;SDS011;4244;48.684;9.028;2023-05-20T00:02:05;6.73;;;5.03;;
8413;SDS011;4244;48.684;9.028;2023-05-20T00:04:30;5.30;;;4.70;;
8413;SDS011;4244;48.684;9.028;2023-05-20T00:06:56;7.23;;;5.40;;
8413;SDS011;4244;48.684;9.028;2023-05-20T00:09:21;9.23;;;6.10;;
8413;SDS011;4244;48.684;9.028;2023-05-20T00:11:47;7.03;;;6.33;;
8413;SDS011;4244;48.684;9.028;2023-05-20T00:14:13;6.80;;;6.10;;
8413;SDS011;4244;48.684;9.028;2023-05-20T00:16:38;10.23;;;7.57;;
8413;SDS011;4244;48.684;9.028;2023-05-20T00:19:04;10.00;;;7.10;;
8413;SDS011;4244;48.684;9.028;2023-05-20T00:21:29;8.50;;;7.70;;
8413;SDS011;4244;48.684;9.028;2023-05-20T00:23:55;10.80;;;8.83;;
8413;SDS011;4244;48.684;9.028;2023-05-20T00:26:22;10.47;;;8.87;;
8413;SDS011;4244;48.684;9.028;2023-05-20T00:28:48;9.43;;;7.60;;
8413;SDS011;4244;48.684;9.028;2023-05-20T00:31:13;6.80;;;6.20;;
8413;SDS011;4244;48.684;9.028;2023-05-20T00:33:39;10.30;;;6.27;;
8413;SDS011;4244;48.684;9.028;2023-05-20T00:36:05;6.77;;;5.93;;
8413;SDS011;4244;48.684;9.028;2023-05-20T00:38:31;5.67;;;5.20;;
8413;SDS011;4244;48.684;9.028;2023-05-20T00:40:57;6.00;;;5.10;;
8413;SDS011;4244;48.684;9.028;2023-05-20T00:43:22;5.07;;;4.67;;
8413;SDS011;4244;48.684;9.028;2023-05-20T00:45:50;6.13;;;5.53;;
8413;SDS011;4244;48.684;9.028;2023-05-20T00:48:17;6.20;;;5.53;;
8413;SDS011;4244;48.684;9.028;2023-05-20T00:50:42;7.43;;;5.57;;
8413;SDS011;4244;48.684;9.028;2023-05-20T00:53:08;5.73;;;5.20;;
8413;SDS011;4244;48.684;9.028;2023-05-20T00:55:34;5.80;;;5.30;;
8413;SDS011;4244;48.684;9.028;2023-05-20T00:58:00;7.30;;;6.60;;
8413;SDS011;4244;48.684;9.028;2023-05-20T01:00:26;9.10;;;5.60;;
8413;SDS011;4244;48.684;9.028;2023-05-20T01:02:51;6.77;;;5.10;;
8413;SDS011;4244;48.684;9.028;2023-05-20T01:05:18;6.30;;;5.80;;
8413;SDS011;4244;48.684;9.028;2023-05-20T01:07:44;6.07;;;5.47;;
8413;SDS011;4244;48.684;9.028;2023-05-20T01:10:10;7.17;;;6.50;;
8413;SDS011;4244;48.684;9.028;2023-05-20T01:12:36;6.30;;;5.70;;
8413;SDS011;4244;48.684;9.028;2023-05-20T01:15:06;6.97;;;6.27;;
8413;SDS011;4244;48.684;9.028;2023-05-20T01:17:34;7.63;;;5.83;;
8413;SDS011;4244;48.684;9.028;2023-05-20T01:20:02;5.90;;;5.40;;
8413;SDS011;4244;48.684;9.028;2023-05-20T01:22:31;7.17;;;6.47;;
8413;SDS011;4244;48.684;9.028;2023-05-20T01:24:56;5.93;;;5.30;;
8413;SDS011;4244;48.684;9.028;2023-05-20T01:27:23;6.50;;;5.90;;
8413;SDS011;4244;48.684;9.028;2023-05-20T01:29:50;7.10;;;6.50;;
8413;SDS011;4244;48.684;9.028;2023-05-20T01:32:18;6.77;;;6.07;;
8413;SDS011;4244;48.684;9.028;2023-05-20T01:34:46;7.37;;;6.10;;
8413;SDS011;4244;48.684;9.028;2023-05-20T01:37:14;6.73;;;6.07;;
8413;SDS011;4244;48.684;9.028;2023-05-20T01:39:41;6.70;;;6.10;;
8413;SDS011;4244;48.684;9.028;2023-05-20T01:42:08;7.00;;;6.40;;
8413;SDS011;4244;48.684;9.028;2023-05-20T01:44:34;6.47;;;5.90;;
8413;SDS011;4244;48.684;9.028;2023-05-20T01:47:00;6.63;;;5.37;;
8413;SDS011;4244;48.684;9.028;2023-05-20T01:49:26;5.87;;;5.37;;
8413;SDS011;4244;48.684;9.028;2023-05-20T01:51:51;6.13;;;5.53;;
8413;SDS011;4244;48.684;9.028;2023-05-20T01:54:17;7.47;;;6.87;;
8413;SDS011;4244;48.684;9.028;2023-05-20T01:56:44;6.17;;;5.67;;
8413;SDS011;4244;48.684;9.028;2023-05-20T01:59:10;6.87;;;6.20;;
8413;SDS011;4244;48.684;9.028;2023-05-20T02:01:36;7.70;;;7.07;;
8413;SDS011;4244;48.684;9.028;2023-05-20T02:04:02;9.67;;;6.70;;
8413;SDS011;4244;48.684;9.028;2023-05-20T02:06:27;7.27;;;6.57;;
8413;SDS011;4244;48.684;9.028;2023-05-20T02:08:53;6.87;;;6.00;;
8413;SDS011;4244;48.684;9.028;2023-05-20T02:11:18;6.43;;;5.80;;
8413;SDS011;4244;48.684;9.028;2023-05-20T02:13:45;7.60;;;6.90;;
8413;SDS011;4244;48.684;9.028;2023-05-20T02:16:10;7.77;;;6.40;;
8413;SDS011;4244;48.684;9.028;2023-05-20T02:21:58;7.07;;;6.20;;
8413;SDS011;4244;48.684;9.028;2023-05-20T02:24:24;6.63;;;6.10;;
8413;SDS011;4244;48.684;9.028;2023-05-20T02:26:49;7.73;;;6.30;;
8413;SDS011;4244;48.684;9.028;2023-05-20T02:29:17;6.57;;;5.90;;
8413;SDS011;4244;48.684;9.028;2023-05-20T02:31:45;8.17;;;6.77;;
8413;SDS011;4244;48.684;9.028;2023-05-20T02:34:12;7.50;;;6.40;;
8413;SDS011;4244;48.684;9.028;2023-05-20T02:36:37;7.17;;;6.47;;
8413;SDS011;4244;48.684;9.028;2023-05-20T02:39:03;6.97;;;6.37;;
8413;SDS011;4244;48.684;9.028;2023-05-20T02:41:28;7.03;;;6.43;;
8413;SDS011;4244;48.684;9.028;2023-05-20T02:43:54;8.07;;;7.37;;
8413;SDS011;4244;48.684;9.028;2023-05-20T02:46:19;6.73;;;6.13;;
8413;SDS011;4244;48.684;9.028;2023-05-20T02:48:45;7.00;;;6.33;;
8413;SDS011;4244;48.684;9.028;2023-05-20T02:51:11;7.07;;;6.37;;
8413;SDS011;4244;48.684;9.028;2023-05-20T02:53:36;6.73;;;6.13;;
8413;SDS011;4244;48.684;9.028;2023-05-20T02:56:02;7.70;;;6.90;;
8413;SDS011;4244;48.684;9.028;2023-05-20T02:58:28;6.63;;;6.07;;
8413;SDS011;4244;48.684;9.028;2023-05-20T03:00:54;6.97;;;6.37;;
8413;SDS011;4244;48.684;9.028;2023-05-20T03:03:22;8.30;;;7.50;;
8413;SDS011;4244;48.684;9.028;2023-05-20T03:05:51;8.27;;;7.47;;
8413;SDS011;4244;48.684;9.028;2023-05-20T03:08:17;7.20;;;6.57;;
8413;SDS011;4244;48.684;9.028;2023-05-20T03:10:44;7.40;;;6.63;;
8413;SDS011;4244;48.684;9.028;2023-05-20T03:13:10;8.30;;;7.50;;
8413;SDS011;4244;48.684;9.028;2023-05-20T03:15:38;7.27;;;6.70;;
8413;SDS011;4244;48.684;9.028;2023-05-20T03:18:04;7.63;;;7.03;;
8413;SDS011;4244;48.684;9.028;2023-05-20T03:20:31;7.13;;;6.53;;
8413;SDS011;4244;48.684;9.028;2023-05-20T03:22:56;7.77;;;6.97;;
8413;SDS011;4244;48.684;9.028;2023-05-20T03:25:23;7.80;;;7.13;;
8413;SDS011;4244;48.684;9.028;2023-05-20T03:27:49;7.97;;;7.23;;
8413;SDS011;4244;48.684;9.028;2023-05-20T03:30:14;8.87;;;8.10;;
8413;SDS011;4244;48.684;9.028;2023-05-20T03:32:40;7.17;;;6.50;;
8413;SDS011;4244;48.684;9.028;2023-05-20T03:35:06;7.80;;;7.10;;
8413;SDS011;4244;48.684;9.028;2023-05-20T03:37:33;9.57;;;8.40;;
8413;SDS011;4244;48.684;9.028;2023-05-20T03:39:59;7.30;;;6.60;;
8413;SDS011;4244;48.684;9.028;2023-05-20T03:42:25;7.87;;;7.17;;
8413;SDS011;4244;48.684;9.028;2023-05-20T03:44:50;8.03;;;7.33;;
8413;SDS011;4244;48.684;9.028;2023-05-20T03:47:16;9.30;;;8.10;;
8413;SDS011;4244;48.684;9.028;2023-05-20T03:49:41;8.97;;;8.17;;
8413;SDS011;4244;48.684;9.028;2023-05-20T03:52:07;7.60;;;6.90;;
8413;SDS011;4244;48.684;9.028;2023-05-20T03:54:32;8.43;;;7.20;;
8413;SDS011;4244;48.684;9.028;2023-05-20T03:57:00;7.97;;;7.27;;
8413;SDS011;4244;48.684;9.028;2023-05-20T03:59:27;7.23;;;6.70;;
8413;SDS011;4244;48.684;9.028;2023-05-20T04:01:53;8.50;;;7.60;;
8413;SDS011;4244;48.684;9.028;2023-05-20T04:04:18;8.03;;;7.33;;
8413;SDS011;4244;48.684;9.028;2023-05-20T04:06:44;8.00;;;7.20;;
8413;SDS011;4244;48.684;9.028;2023-05-20T04:09:10;8.77;;;7.97;;
8413;SDS011;4244;48.684;9.028;2023-05-20T04:11:35;8.30;;;7.30;;
8413;SDS011;4244;48.684;9.028;2023-05-20T04:14:01;8.60;;;7.80;;
8413;SDS011;4244;48.684;9.028;2023-05-20T04:16:27;8.67;;;7.67;;
8413;SDS011;4244;48.684;9.028;2023-05-20T04:18:53;8.50;;;7.47;;
8413;SDS011;4244;48.684;9.028;2023-05-20T04:21:19;9.10;;;8.30;;
8413;SDS011;4244;48.684;9.028;2023-05-20T04:23:45;8.77;;;7.90;;
8413;SDS011;4244;48.684;9.028;2023-05-20T04:26:11;8.20;;;7.50;;
8413;SDS011;4244;48.684;9.028;2023-05-20T04:28:36;8.73;;;8.03;;
8413;SDS011;4244;48.684;9.028;2023-05-20T04:31:03;9.13;;;8.33;;
8413;SDS011;4244;48.684;9.028;2023-05-20T04:33:29;8.07;;;7.40;;
8413;SDS011;4244;48.684;9.028;2023-05-20T04:35:56;9.00;;;8.10;;
8413;SDS011;4244;48.684;9.028;2023-05-20T04:38:25;8.80;;;8.00;;
8413;SDS011;4244;48.684;9.028;2023-05-20T04:40:54;8.63;;;7.73;;
8413;SDS011;4244;48.684;9.028;2023-05-20T04:43:24;8.10;;;7.30;;
8413;SDS011;4244;48.684;9.028;2023-05-20T04:45:50;7.43;;;6.73;;
8413;SDS011;4244;48.684;9.028;2023-05-20T04:48:17;7.30;;;6.70;;
8413;SDS011;4244;48.684;9.028;2023-05-20T04:50:43;7.87;;;6.97;;
8413;SDS011;4244;48.684;9.028;2023-05-20T04:53:09;8.07;;;7.37;;
8413;SDS011;4244;48.684;9.028;2023-05-20T04:55:35;8.03;;;7.20;;
8413;SDS011;4244;48.684;9.028;2023-05-20T04:58:01;8.20;;;7.50;;
8413;SDS011;4244;48.684;9.028;2023-05-20T05:00:27;8.20;;;7.40;;
8413;SDS011;4244;48.684;9.028;2023-05-20T05:02:53;8.97;;;7.47;;
8413;SDS011;4244;48.684;9.028;2023-05-20T05:05:19;8.07;;;7.37;;
8413;SDS011;4244;48.684;9.028;2023-05-20T05:07:44;7.63;;;7.00;;
8413;SDS011;4244;48.684;9.028;2023-05-20T05:10:10;7.13;;;6.43;;
8413;SDS011;4244;48.684;9.028;2023-05-20T05:12:36;8.17;;;7.40;;
8413;SDS011;4244;48.684;9.028;2023-05-20T05:15:02;7.77;;;7.00;;
8413;SDS011;4244;48.684;9.028;2023-05-20T05:17:27;9.57;;;7.40;;
8413;SDS011;4244;48.684;9.028;2023-05-20T05:19:53;8.13;;;7.33;;
8413;SDS011;4244;48.684;9.028;2023-05-20T05:22:19;6.70;;;6.20;;
8413;SDS011;4244;48.684;9.028;2023-05-20T05:24:44;7.37;;;6.77;;
8413;SDS011;4244;48.684;9.028;2023-05-20T05:27:10;9.60;;;7.90;;
8413;SDS011;4244;48.684;9.028;2023-05-20T05:29:35;9.40;;;7.23;;
8413;SDS011;4244;48.684;9.028;2023-05-20T05:32:01;6.93;;;6.43;;
8413;SDS011;4244;48.684;9.028;2023-05-20T05:34:26;7.40;;;6.63;;
8413;SDS011;4244;48.684;9.028;2023-05-20T05:36:52;9.10;;;6.70;;
8413;SDS011;4244;48.684;9.028;2023-05-20T05:39:18;7.10;;;6.40;;
8413;SDS011;4244;48.684;9.028;2023-05-20T05:41:43;6.97;;;6.33;;
8413;SDS011;4244;48.684;9.028;2023-05-20T05:44:09;8.27;;;6.73;;
8413;SDS011;4244;48.684;9.028;2023-05-20T05:46:34;7.53;;;6.93;;
8413;SDS011;4244;48.684;9.028;2023-05-20T05:49:00;7.20;;;6.37;;
8413;SDS011;4244;48.684;9.028;2023-05-20T05:51:26;7.20;;;6.60;;
8413;SDS011;4244;48.684;9.028;2023-05-20T05:53:52;7.30;;;6.70;;
8413;SDS011;4244;48.684;9.028;2023-05-20T05:56:18;7.33;;;6.73;;
8413;SDS011;4244;48.684;9.028;2023-05-20T05:58:45;8.97;;;6.87;;
8413;SDS011;4244;48.684;9.028;2023-05-20T06:01:12;7.37;;;6.70;;
8413;SDS011;4244;48.684;9.028;2023-05-20T06:03:41;9.20;;;6.80;;
8413;SDS011;4244;48.684;9.028;2023-05-20T06:06:06;7.97;;;7.27;;
8413;SDS011;4244;48.684;9.028;2023-05-20T06:08:32;7.87;;;7.17;;
8413;SDS011;4244;48.684;9.028;2023-05-20T06:10:58;7.47;;;6.77;;
8413;SDS011;4244;48.684;9.028;2023-05-20T06:13:23;6.90;;;6.20;;
8413;SDS011;4244;48.684;9.028;2023-05-20T06:15:49;7.13;;;6.43;;
8413;SDS011;4244;48.684;9.028;2023-05-20T06:18:14;7.33;;;6.63;;
8413;SDS011;4244;48.684;9.028;2023-05-20T06:20:40;8.70;;;7.47;;
8413;SDS011;4244;48.684;9.028;2023-05-20T06:23:06;7.90;;;7.20;;
8413;SDS011;4244;48.684;9.028;2023-05-20T06:25:31;6.40;;;5.77;;
8413;SDS011;4244;48.684;9.028;2023-05-20T06:27:57;8.70;;;7.80;;
8413;SDS011;4244;48.684;9.028;2023-05-20T06:30:22;6.90;;;6.30;;
8413;SDS011;4244;48.684;9.028;2023-05-20T06:32:48;8.03;;;7.23;;
8413;SDS011;4244;48.684;9.028;2023-05-20T06:35:15;6.20;;;5.70;;
8413;SDS011;4244;48.684;9.028;2023-05-20T06:37:41;7.43;;;6.83;;
8413;SDS011;4244;48.684;9.028;2023-05-20T06:40:07;8.30;;;7.50;;
8413;SDS011;4244;48.684;9.028;2023-05-20T06:42:33;9.80;;;6.43;;
8413;SDS011;4244;48.684;9.028;2023-05-20T06:44:59;7.83;;;7.13;;
8413;SDS011;4244;48.684;9.028;2023-05-20T06:47:24;7.17;;;6.57;;
8413;SDS011;4244;48.684;9.028;2023-05-20T06:49:50;7.30;;;6.60;;
8413;SDS011;4244;48.684;9.028;2023-05-20T06:52:15;7.90;;;7.20;;
8413;SDS011;4244;48.684;9.028;2023-05-20T06:54:41;8.10;;;7.40;;
8413;SDS011;4244;48.684;9.028;2023-05-20T06:57:07;10.60;;;7.87;;
8413;SDS011;4244;48.684;9.028;2023-05-20T06:59:34;7.57;;;6.97;;
8413;SDS011;4244;48.684;9.028;2023-05-20T07:02:03;7.60;;;6.87;;
8413;SDS011;4244;48.684;9.028;2023-05-20T07:04:29;7.03;;;6.43;;
8413;SDS011;4244;48.684;9.028;2023-05-20T07:06:54;7.97;;;7.27;;
8413;SDS011;4244;48.684;9.028;2023-05-20T07:09:20;7.93;;;6.90;;
8413;SDS011;4244;48.684;9.028;2023-05-20T07:11:45;8.77;;;7.87;;
8413;SDS011;4244;48.684;9.028;2023-05-20T07:14:11;8.40;;;7.57;;
8413;SDS011;4244;48.684;9.028;2023-05-20T07:16:37;7.47;;;6.80;;
8413;SDS011;4244;48.684;9.028;2023-05-20T07:19:02;10.33;;;8.00;;
8413;SDS011;4244;48.684;9.028;2023-05-20T07:21:28;7.90;;;7.20;;
8413;SDS011;4244;48.684;9.028;2023-05-20T07:23:54;7.67;;;7.00;;
8413;SDS011;4244;48.684;9.028;2023-05-20T07:26:20;8.07;;;7.37;;
8413;SDS011;4244;48.684;9.028;2023-05-20T07:28:45;9.03;;;8.23;;
8413;SDS011;4244;48.684;9.028;2023-05-20T07:31:11;8.47;;;7.70;;
8413;SDS011;4244;48.684;9.028;2023-05-20T07:33:37;8.80;;;8.00;;
8413;SDS011;4244;48.684;9.028;2023-05-20T07:36:03;9.30;;;8.47;;
8413;SDS011;4244;48.684;9.028;2023-05-20T07:38:29;8.77;;;8.07;;
8413;SDS011;4244;48.684;9.028;2023-05-20T07:40:54;7.93;;;7.17;;
8413;SDS011;4244;48.684;9.028;2023-05-20T07:43:20;8.67;;;7.80;;
8413;SDS011;4244;48.684;9.028;2023-05-20T07:45:46;7.90;;;7.20;;
8413;SDS011;4244;48.684;9.028;2023-05-20T07:48:11;7.33;;;6.73;;
8413;SDS011;4244;48.684;9.028;2023-05-20T07:50:37;10.00;;;9.10;;
8413;SDS011;4244;48.684;9.028;2023-05-20T07:53:04;9.20;;;8.30;;
8413;SDS011;4244;48.684;9.028;2023-05-20T07:55:32;8.40;;;7.60;;
8413;SDS011;4244;48.684;9.028;2023-05-20T07:57:58;8.37;;;7.57;;
8413;SDS011;4244;48.684;9.028;2023-05-20T08:00:24;9.00;;;8.20;;
8413;SDS011;4244;48.684;9.028;2023-05-20T08:02:49;7.90;;;7.20;;
8413;SDS011;4244;48.684;9.028;2023-05-20T08:05:15;8.27;;;7.47;;
8413;SDS011;4244;48.684;9.028;2023-05-20T08:07:41;8.27;;;7.57;;
8413;SDS011;4244;48.684;9.028;2023-05-20T08:10:06;7.07;;;6.57;;
8413;SDS011;4244;48.684;9.028;2023-05-20T08:12:32;7.93;;;7.13;;
8413;SDS011;4244;48.684;9.028;2023-05-20T08:14:58;8.03;;;7.37;;
8413;SDS011;4244;48.684;9.028;2023-05-20T08:17:24;7.70;;;7.10;;
8413;SDS011;4244;48.684;9.028;2023-05-20T08:19:50;8.10;;;7.37;;
8413;SDS011;4244;48.684;9.028;2023-05-20T08:22:15;7.63;;;7.03;;
8413;SDS011;4244;48.684;9.028;2023-05-20T08:24:41;7.63;;;7.03;;
8413;SDS011;4244;48.684;9.028;2023-05-20T08:27:07;7.83;;;7.20;;
8413;SDS011;4244;48.684;9.028;2023-05-20T08:29:32;7.33;;;6.77;;
8413;SDS011;4244;48.684;9.028;2023-05-20T08:31:58;8.30;;;7.50;;
8413;SDS011;4244;48.684;9.028;2023-05-20T08:34:24;8.40;;;7.60;;
8413;SDS011;4244;48.684;9.028;2023-05-20T08:36:49;7.77;;;7.07;;
8413;SDS011;4244;48.684;9.028;2023-05-20T08:39:15;8.00;;;7.30;;
8413;SDS011;4244;48.684;9.028;2023-05-20T08:41:41;8.40;;;7.70;;
8413;SDS011;4244;48.684;9.028;2023-05-20T08:44:06;7.80;;;7.20;;
8413;SDS011;4244;48.684;9.028;2023-05-20T08:46:35;8.60;;;7.87;;
8413;SDS011;4244;48.684;9.028;2023-05-20T08:49:01;9.67;;;8.77;;
8413;SDS011;4244;48.684;9.028;2023-05-20T08:51:27;8.30;;;7.50;;
8413;SDS011;4244;48.684;9.028;2023-05-20T08:53:53;7.97;;;7.27;;
8413;SDS011;4244;48.684;9.028;2023-05-20T08:56:19;9.07;;;7.77;;
8413;SDS011;4244;48.684;9.028;2023-05-20T08:58:46;7.70;;;6.90;;
8413;SDS011;4244;48.684;9.028;2023-05-20T09:01:11;7.63;;;7.03;;
8413;SDS011;4244;48.684;9.028;2023-05-20T09:03:37;6.97;;;6.27;;
8413;SDS011;4244;48.684;9.028;2023-05-20T09:06:06;7.90;;;7.00;;
8413;SDS011;4244;48.684;9.028;2023-05-20T09:08:33;7.17;;;6.57;;
8413;SDS011;4244;48.684;9.028;2023-05-20T09:10:58;7.57;;;6.87;;
8413;SDS011;4244;48.684;9.028;2023-05-20T09:13:25;8.07;;;7.27;;
8413;SDS011;4244;48.684;9.028;2023-05-20T09:15:52;8.93;;;7.93;;
8413;SDS011;4244;48.684;9.028;2023-05-20T09:18:17;7.00;;;6.40;;
8413;SDS011;4244;48.684;9.028;2023-05-20T09:20:45;7.20;;;6.60;;
8413;SDS011;4244;48.684;9.028;2023-05-20T09:23:11;7.60;;;6.90;;
8413;SDS011;4244;48.684;9.028;2023-05-20T09:25:37;7.77;;;5.97;;
8413;SDS011;4244;48.684;9.028;2023-05-20T09:28:04;6.77;;;6.13;;
8413;SDS011;4244;48.684;9.028;2023-05-20T09:30:31;7.63;;;6.90;;
8413;SDS011;4244;48.684;9.028;2023-05-20T09:32:57;7.40;;;6.70;;
8413;SDS011;4244;48.684;9.028;2023-05-20T09:35:24;7.70;;;7.00;;
8413;SDS011;4244;48.684;9.028;2023-05-20T09:37:52;7.93;;;7.13;;
8413;SDS011;4244;48.684;9.028;2023-05-20T09:40:20;6.90;;;6.30;;
8413;SDS011;4244;48.684;9.028;2023-05-20T09:42:55;8.13;;;6.80;;
8413;SDS011;4244;48.684;9.028;2023-05-20T09:45:24;8.47;;;7.70;;
8413;SDS011;4244;48.684;9.028;2023-05-20T09:47:50;10.10;;;7.30;;
8413;SDS011;4244;48.684;9.028;2023-05-20T09:50:17;7.47;;;6.80;;
8413;SDS011;4244;48.684;9.028;2023-05-20T09:52:45;7.40;;;6.80;;
8413;SDS011;4244;48.684;9.028;2023-05-20T09:55:15;7.60;;;6.93;;
8413;SDS011;4244;48.684;9.028;2023-05-20T09:57:42;13.53;;;8.43;;
8413;SDS011;4244;48.684;9.028;2023-05-20T10:00:07;8.10;;;7.40;;
8413;SDS011;4244;48.684;9.028;2023-05-20T10:02:34;7.03;;;6.33;;
8413;SDS011;4244;48.684;9.028;2023-05-20T10:05:04;7.43;;;6.83;;
8413;SDS011;4244;48.684;9.028;2023-05-20T10:15:23;6.97;;;6.43;;
8413;SDS011;4244;48.684;9.028;2023-05-20T10:20:56;9.77;;;7.17;;
8413;SDS011;4244;48.684;9.028;2023-05-20T10:23:28;41.60;;;12.80;;
8413;SDS011;4244;48.684;9.028;2023-05-20T10:25:55;23.47;;;9.03;;
8413;SDS011;4244;48.684;9.028;2023-05-20T10:28:35;13.87;;;9.20;;
8413;SDS011;4244;48.684;9.028;2023-05-20T10:31:02;8.50;;;7.03;;
8413;SDS011;4244;48.684;9.028;2023-05-20T10:33:43;7.20;;;6.63;;
8413;SDS011;4244;48.684;9.028;2023-05-20T10:36:09;6.90;;;6.27;;
8413;SDS011;4244;48.684;9.028;2023-05-20T10:38:35;6.70;;;6.20;;
8413;SDS011;4244;48.684;9.028;2023-05-20T10:41:08;8.60;;;7.90;;
8413;SDS011;4244;48.684;9.028;2023-05-20T10:43:36;7.50;;;6.90;;
8413;SDS011;4244;48.684;9.028;2023-05-20T10:46:02;6.10;;;5.50;;
8413;SDS011;4244;48.684;9.028;2023-05-20T10:48:28;7.60;;;6.90;;
8413;SDS011;4244;48.684;9.028;2023-05-20T10:50:59;7.67;;;6.97;;
8413;SDS011;4244;48.684;9.028;2023-05-20T10:53:28;7.80;;;7.10;;
8413;SDS011;4244;48.684;9.028;2023-05-20T10:56:02;7.90;;;7.30;;
8413;SDS011;4244;48.684;9.028;2023-05-20T10:58:35;8.20;;;7.47;;
8413;SDS011;4244;48.684;9.028;2023-05-20T11:01:01;8.33;;;7.57;;
8413;SDS011;4244;48.684;9.028;2023-05-20T11:03:27;6.83;;;6.17;;
8413;SDS011;4244;48.684;9.028;2023-05-20T11:05:53;6.70;;;6.20;;
8413;SDS011;4244;48.684;9.028;2023-05-20T11:08:19;6.97;;;6.37;;
8413;SDS011;4244;48.684;9.028;2023-05-20T11:10:45;6.80;;;6.30;;
8413;SDS011;4244;48.684;9.028;2023-05-20T11:13:11;6.47;;;5.97;;
8413;SDS011;4244;48.684;9.028;2023-05-20T11:15:39;6.80;;;6.30;;
8413;SDS011;4244;48.684;9.028;2023-05-20T11:18:05;7.20;;;6.60;;
8413;SDS011;4244;48.684;9.028;2023-05-20T11:20:30;6.90;;;6.40;;
8413;SDS011;4244;48.684;9.028;2023-05-20T11:22:59;7.40;;;6.60;;
8413;SDS011;4244;48.684;9.028;2023-05-20T11:25:25;6.70;;;6.20;;
8413;SDS011;4244;48.684;9.028;2023-05-20T11:27:52;6.90;;;6.20;;
8413;SDS011;4244;48.684;9.028;2023-05-20T11:30:18;6.87;;;6.37;;
8413;SDS011;4244;48.684;9.028;2023-05-20T11:35:25;6.13;;;5.73;;
8413;SDS011;4244;48.684;9.028;2023-05-20T11:37:56;7.13;;;6.43;;
8413;SDS011;4244;48.684;9.028;2023-05-20T11:40:30;7.23;;;6.63;;
8413;SDS011;4244;48.684;9.028;2023-05-20T11:42:57;6.67;;;6.17;;
8413;SDS011;4244;48.684;9.028;2023-05-20T11:45:24;7.53;;;6.93;;
8413;SDS011;4244;48.684;9.028;2023-05-20T11:48:01;6.77;;;6.00;;
8413;SDS011;4244;48.684;9.028;2023-05-20T11:50:27;6.30;;;5.80;;
8413;SDS011;4244;48.684;9.028;2023-05-20T11:52:57;6.90;;;6.30;;
8413;SDS011;4244;48.684;9.028;2023-05-20T11:55:23;7.07;;;6.47;;
8413;SDS011;4244;48.684;9.028;2023-05-20T11:57:49;8.67;;;6.57;;
8413;SDS011;4244;48.684;9.028;2023-05-20T12:00:16;7.10;;;6.50;;
8413;SDS011;4244;48.684;9.028;2023-05-20T12:02:41;7.03;;;6.43;;
8413;SDS011;4244;48.684;9.028;2023-05-20T12:05:08;6.70;;;6.20;;
8413;SDS011;4244;48.684;9.028;2023-05-20T12:07:34;6.70;;;6.10;;
8413;SDS011;4244;48.684;9.028;2023-05-20T12:10:01;7.07;;;6.47;;
8413;SDS011;4244;48.684;9.028;2023-05-20T12:12:27;7.93;;;6.10;;
8413;SDS011;4244;48.684;9.028;2023-05-20T12:14:52;6.57;;;5.97;;
8413;SDS011;4244;48.684;9.028;2023-05-20T12:17:18;7.30;;;6.70;;
8413;SDS011;4244;48.684;9.028;2023-05-20T12:19:44;6.50;;;5.93;;
8413;SDS011;4244;48.684;9.028;2023-05-20T12:22:09;6.20;;;5.70;;
8413;SDS011;4244;48.684;9.028;2023-05-20T12:24:35;6.10;;;5.60;;
8413;SDS011;4244;48.684;9.028;2023-05-20T12:27:00;6.30;;;5.80;;
8413;SDS011;4244;48.684;9.028;2023-05-20T12:29:28;6.20;;;5.70;;
8413;SDS011;4244;48.684;9.028;2023-05-20T12:31:53;5.87;;;5.47;;
8413;SDS011;4244;48.684;9.028;2023-05-20T12:34:19;5.30;;;4.90;;
8413;SDS011;4244;48.684;9.028;2023-05-20T12:36:45;6.10;;;5.60;;
8413;SDS011;4244;48.684;9.028;2023-05-20T12:39:11;6.17;;;5.67;;
8413;SDS011;4244;48.684;9.028;2023-05-20T12:41:37;6.43;;;5.80;;
8413;SDS011;4244;48.684;9.028;2023-05-20T12:44:03;7.30;;;6.70;;
8413;SDS011;4244;48.684;9.028;2023-05-20T12:46:29;6.40;;;5.80;;
8413;SDS011;4244;48.684;9.028;2023-05-20T12:48:55;6.60;;;6.00;;
8413;SDS011;4244;48.684;9.028;2023-05-20T12:51:20;6.40;;;5.90;;
8413;SDS011;4244;48.684;9.028;2023-05-20T12:53:46;6.43;;;5.83;;
8413;SDS011;4244;48.684;9.028;2023-05-20T12:56:11;6.13;;;5.50;;
8413;SDS011;4244;48.684;9.028;2023-05-20T12:58:37;6.60;;;5.87;;
8413;SDS011;4244;48.684;9.028;2023-05-20T13:01:03;5.80;;;5.40;;
8413;SDS011;4244;48.684;9.028;2023-05-20T13:03:28;6.47;;;5.97;;
8413;SDS011;4244;48.684;9.028;2023-05-20T13:05:55;5.67;;;5.23;;
8413;SDS011;4244;48.684;9.028;2023-05-20T13:08:20;6.07;;;5.67;;
8413;SDS011;4244;48.684;9.028;2023-05-20T13:10:46;6.03;;;5.53;;
8413;SDS011;4244;48.684;9.028;2023-05-20T13:13:12;6.07;;;5.50;;
8413;SDS011;4244;48.684;9.028;2023-05-20T13:15:45;5.87;;;5.40;;
8413;SDS011;4244;48.684;9.028;2023-05-20T13:18:10;5.90;;;5.40;;
8413;SDS011;4244;48.684;9.028;2023-05-20T13:20:36;7.53;;;6.93;;
8413;SDS011;4244;48.684;9.028;2023-05-20T13:23:02;6.90;;;6.40;;
8413;SDS011;4244;48.684;9.028;2023-05-20T13:25:28;6.37;;;5.93;;
8413;SDS011;4244;48.684;9.028;2023-05-20T13:27:55;6.00;;;5.50;;
8413;SDS011;4244;48.684;9.028;2023-05-20T13:30:21;5.87;;;5.47;;
8413;SDS011;4244;48.684;9.028;2023-05-20T13:32:47;5.90;;;5.40;;
8413;SDS011;4244;48.684;9.028;2023-05-20T13:35:12;5.73;;;5.10;;
8413;SDS011;4244;48.684;9.028;2023-05-20T13:37:38;6.00;;;5.50;;
8413;SDS011;4244;48.684;9.028;2023-05-20T13:40:04;6.43;;;5.93;;
8413;SDS011;4244;48.684;9.028;2023-05-20T13:42:30;5.20;;;4.80;;
8413;SDS011;4244;48.684;9.028;2023-05-20T13:44:56;7.70;;;7.00;;
8413;SDS011;4244;48.684;9.028;2023-05-20T13:47:21;6.07;;;5.47;;
8413;SDS011;4244;48.684;9.028;2023-05-20T13:49:47;6.10;;;5.60;;
8413;SDS011;4244;48.684;9.028;2023-05-20T13:52:13;5.70;;;5.30;;
8413;SDS011;4244;48.684;9.028;2023-05-20T13:54:39;5.67;;;5.13;;
8413;SDS011;4244;48.684;9.028;2023-05-20T13:57:06;6.20;;;5.70;;
8413;SDS011;4244;48.684;9.028;2023-05-20T13:59:32;5.27;;;4.87;;
8413;SDS011;4244;48.684;9.028;2023-05-20T14:01:58;5.93;;;5.43;;
8413;SDS011;4244;48.684;9.028;2023-05-20T14:04:25;5.57;;;5.17;;
8413;SDS011;4244;48.684;9.028;2023-05-20T14:06:50;7.13;;;5.63;;
8413;SDS011;4244;48.684;9.028;2023-05-20T14:09:16;6.07;;;5.60;;
8413;SDS011;4244;48.684;9.028;2023-05-20T14:11:41;5.93;;;5.43;;
8413;SDS011;4244;48.684;9.028;2023-05-20T14:14:07;6.93;;;5.70;;
8413;SDS011;4244;48.684;9.028;2023-05-20T14:16:33;7.40;;;6.00;;
8413;SDS011;4244;48.684;9.028;2023-05-20T14:18:58;9.63;;;5.50;;
8413;SDS011;4244;48.684;9.028;2023-05-20T14:21:24;5.70;;;5.23;;
8413;SDS011;4244;48.684;9.028;2023-05-20T14:23:49;6.03;;;5.43;;
8413;SDS011;4244;48.684;9.028;2023-05-20T14:26:15;7.23;;;5.90;;
8413;SDS011;4244;48.684;9.028;2023-05-20T14:28:41;6.00;;;5.40;;
8413;SDS011;4244;48.684;9.028;2023-05-20T14:31:06;5.57;;;5.03;;
8413;SDS011;4244;48.684;9.028;2023-05-20T14:33:32;7.20;;;5.70;;
8413;SDS011;4244;48.684;9.028;2023-05-20T14:35:57;5.40;;;5.00;;
8413;SDS011;4244;48.684;9.028;2023-05-20T14:38:23;6.07;;;5.57;;
8413;SDS011;4244;48.684;9.028;2023-05-20T14:40:50;6.60;;;6.10;;
8413;SDS011;4244;48.684;9.028;2023-05-20T14:43:16;6.30;;;5.80;;
8413;SDS011;4244;48.684;9.028;2023-05-20T14:45:42;5.93;;;5.47;;
8413;SDS011;4244;48.684;9.028;2023-05-20T14:48:10;6.43;;;5.83;;
8413;SDS011;4244;48.684;9.028;2023-05-20T14:50:36;6.97;;;6.40;;
8413;SDS011;4244;48.684;9.028;2023-05-20T14:53:01;6.93;;;6.27;;
8413;SDS011;4244;48.684;9.028;2023-05-20T14:55:27;6.47;;;5.90;;
8413;SDS011;4244;48.684;9.028;2023-05-20T14:57:53;6.17;;;5.67;;
8413;SDS011;4244;48.684;9.028;2023-05-20T15:00:18;5.93;;;5.43;;
8413;SDS011;4244;48.684;9.028;2023-05-20T15:02:44;6.07;;;5.57;;
8413;SDS011;4244;48.684;9.028;2023-05-20T15:05:10;5.13;;;4.73;;
8413;SDS011;4244;48.684;9.028;2023-05-20T15:07:36;6.30;;;5.80;;
8413;SDS011;4244;48.684;9.028;2023-05-20T15:10:02;6.00;;;5.40;;
8413;SDS011;4244;48.684;9.028;2023-05-20T15:12:28;5.40;;;5.00;;
8413;SDS011;4244;48.684;9.028;2023-05-20T15:14:53;6.60;;;5.13;;
8413;SDS011;4244;48.684;9.028;2023-05-20T15:17:19;6.07;;;5.63;;
8413;SDS011;4244;48.684;9.028;2023-05-20T15:19:45;6.67;;;5.90;;
8413;SDS011;4244;48.684;9.028;2023-05-20T15:22:10;12.00;;;10.97;;
8413;SDS011;4244;48.684;9.028;2023-05-20T15:24:36;8.00;;;7.20;;
8413;SDS011;4244;48.684;9.028;2023-05-20T15:27:02;7.33;;;5.70;;